Time;durP1;ratioP1;P1;durP2;ratioP2;P2;SDS_P1;SDS_P2;PMS_P1;PMS_P2;Temp;Humidity;BMP_temperature;BMP_pressure;BME280_temperature;BME280_humidity;BME280_pressure;Samples;Min_cycle;Max_cycle;Signal;HPM_P1;HPM_P2
2023/03/25 00:01:38;;;;;;;4.53;2.97;;;9.70;99.90;;;;;;4966887;28;20687;-71
2023/03/25 00:04:04;;;;;;;2.47;2.27;;;9.60;99.90;;;;;;4984171;28;20581;-73
2023/03/25 00:06:33;;;;;;;4.70;2.27;;;9.70;99.90;;;;;;4987815;28;20222;-72
2023/03/25 00:08:59;;;;;;;5.40;2.27;;;9.70;99.90;;;;;;4988203;28;20685;-72
2023/03/25 00:11:25;;;;;;;5.73;2.30;;;9.70;99.90;;;;;;4989268;28;20200;-74
2023/03/25 00:13:50;;;;;;;3.17;2.37;;;9.70;99.90;;;;;;4987494;28;20224;-73
2023/03/25 00:16:17;;;;;;;5.07;1.70;;;9.60;99.90;;;;;;4983414;28;20211;-73
2023/03/25 00:18:43;;;;;;;2.10;1.90;;;9.60;99.90;;;;;;4988410;28;20234;-74
2023/03/25 00:21:10;;;;;;;3.13;2.07;;;9.60;99.90;;;;;;4988110;28;20217;-74
2023/03/25 00:23:36;;;;;;;4.83;2.40;;;9.50;99.90;;;;;;4988843;28;20220;-76
2023/03/25 00:26:03;;;;;;;2.83;2.13;;;9.50;99.90;;;;;;4987999;28;20662;-75
2023/03/25 00:28:31;;;;;;;3.43;2.60;;;9.50;99.90;;;;;;4988885;28;20208;-75
2023/03/25 00:31:01;;;;;;;4.17;1.80;;;9.50;99.90;;;;;;4988229;28;20765;-73
2023/03/25 00:33:27;;;;;;;3.50;2.20;;;9.50;99.90;;;;;;4989164;28;20324;-73
2023/03/25 00:35:57;;;;;;;1.93;1.50;;;9.50;99.90;;;;;;4988627;28;20321;-75
2023/03/25 00:38:32;;;;;;;3.73;2.13;;;9.50;99.90;;;;;;4985869;28;20201;-72
2023/03/25 00:41:10;;;;;;;3.57;1.93;;;9.50;99.90;;;;;;4985799;28;20220;-71
2023/03/25 00:43:36;;;;;;;6.00;2.20;;;9.40;99.90;;;;;;4988508;28;20212;-71
2023/03/25 00:46:02;;;;;;;1.97;1.77;;;9.40;99.90;;;;;;4986027;28;20238;-71
2023/03/25 00:48:28;;;;;;;5.03;2.00;;;9.40;99.90;;;;;;4988514;28;20697;-72
2023/03/25 00:50:54;;;;;;;6.37;1.93;;;9.40;99.90;;;;;;4987901;28;20300;-72
2023/03/25 00:53:19;;;;;;;1.60;1.50;;;9.30;99.90;;;;;;4987492;28;20205;-71
2023/03/25 00:55:45;;;;;;;4.10;1.63;;;9.30;99.90;;;;;;4985949;28;20212;-72
2023/03/25 00:58:11;;;;;;;2.07;1.97;;;9.30;99.90;;;;;;4986386;28;20200;-74
2023/03/25 01:00:36;;;;;;;2.27;1.70;;;9.30;99.90;;;;;;4988184;28;20208;-72
2023/03/25 01:03:02;;;;;;;5.07;1.93;;;9.30;99.90;;;;;;4985513;28;20314;-72
2023/03/25 01:05:28;;;;;;;2.37;2.17;;;9.20;99.90;;;;;;4985613;28;20215;-71
2023/03/25 01:07:54;;;;;;;1.53;1.43;;;9.20;99.90;;;;;;4986485;28;20237;-74
2023/03/25 01:10:20;;;;;;;2.70;1.57;;;9.20;99.90;;;;;;4985264;28;20233;-72
2023/03/25 01:12:46;;;;;;;2.97;1.80;;;9.20;99.90;;;;;;4988772;28;20260;-88
2023/03/25 01:15:11;;;;;;;2.77;1.50;;;9.10;99.90;;;;;;4984053;28;20224;-77
2023/03/25 01:17:37;;;;;;;3.20;1.87;;;9.20;99.90;;;;;;4987226;28;20209;-77
2023/03/25 01:20:05;;;;;;;2.77;1.50;;;9.10;99.90;;;;;;4986903;28;20203;-79
2023/03/25 01:22:31;;;;;;;2.00;1.63;;;9.00;99.90;;;;;;4984001;28;20240;-77
2023/03/25 01:24:56;;;;;;;1.60;1.27;;;8.90;99.90;;;;;;4986773;28;20307;-75
2023/03/25 01:27:23;;;;;;;6.27;1.67;;;8.90;99.90;;;;;;4986312;28;20221;-75
2023/03/25 01:29:49;;;;;;;1.40;1.23;;;8.80;99.90;;;;;;4985045;28;20217;-74
2023/03/25 01:32:14;;;;;;;1.80;1.70;;;8.80;99.90;;;;;;4987159;28;20213;-75
2023/03/25 01:34:41;;;;;;;2.37;1.60;;;8.70;99.90;;;;;;4986912;28;20271;-76
2023/03/25 01:37:08;;;;;;;2.47;1.57;;;8.60;99.90;;;;;;4990491;28;20224;-75
2023/03/25 01:39:35;;;;;;;2.77;1.50;;;8.60;99.90;;;;;;4986457;28;20205;-76
2023/03/25 01:42:01;;;;;;;2.03;1.80;;;8.50;99.90;;;;;;4984715;28;20349;-75
2023/03/25 01:44:28;;;;;;;1.80;1.50;;;8.50;99.90;;;;;;4987943;28;20283;-74
2023/03/25 01:46:54;;;;;;;2.37;1.70;;;8.50;99.90;;;;;;4987449;28;20709;-74
2023/03/25 01:49:37;;;;;;;1.63;1.43;;;8.50;99.90;;;;;;4987097;28;20568;-73
2023/03/25 01:52:09;;;;;;;1.93;1.63;;;8.50;99.90;;;;;;4986337;28;20236;-68
2023/03/25 01:54:37;;;;;;;1.70;1.40;;;8.50;99.90;;;;;;4986430;28;20192;-68
2023/03/25 01:57:04;;;;;;;2.10;1.43;;;8.50;99.90;;;;;;4984752;28;20204;-75
2023/03/25 01:59:29;;;;;;;2.60;1.73;;;8.50;99.90;;;;;;4983753;28;20208;-75
2023/03/25 02:02:00;;;;;;;3.07;1.80;;;8.60;99.90;;;;;;4989196;28;20216;-71
2023/03/25 02:04:50;;;;;;;2.10;1.63;;;8.60;99.90;;;;;;4983325;28;20209;-70
2023/03/25 02:07:17;;;;;;;5.17;1.90;;;8.60;99.90;;;;;;4985146;28;20227;-70
2023/03/25 02:09:43;;;;;;;2.00;1.67;;;8.60;99.90;;;;;;4986643;28;20969;-70
2023/03/25 02:12:09;;;;;;;3.27;2.10;;;8.70;99.90;;;;;;4986283;28;20208;-69
2023/03/25 02:14:36;;;;;;;3.03;2.47;;;8.70;99.90;;;;;;4984717;28;20200;-72
2023/03/25 02:17:27;;;;;;;1.93;1.83;;;8.70;99.90;;;;;;4986290;28;20216;-69
2023/03/25 02:20:05;;;;;;;3.40;1.47;;;8.80;99.90;;;;;;4981321;28;20208;-70
2023/03/25 02:23:08;;;;;;;2.23;1.90;;;8.80;99.90;;;;;;4976605;28;20208;-69
2023/03/25 02:25:48;;;;;;;2.13;1.70;;;8.70;99.90;;;;;;4960177;28;20871;-69
2023/03/25 02:28:36;;;;;;;2.93;1.70;;;8.70;99.90;;;;;;4976708;28;20223;-79
2023/03/25 02:31:16;;;;;;;2.20;1.60;;;8.70;99.90;;;;;;4976500;28;20211;-67
2023/03/25 02:33:55;;;;;;;2.03;1.83;;;8.80;99.90;;;;;;4975044;28;20272;-67
2023/03/25 02:36:55;;;;;;;3.13;1.60;;;8.70;99.90;;;;;;4995609;28;20206;-67
2023/03/25 02:39:41;;;;;;;2.30;1.50;;;8.70;99.90;;;;;;4995686;28;20207;-69
2023/03/25 02:42:24;;;;;;;1.77;1.40;;;8.70;99.90;;;;;;4994998;28;20208;-67
2023/03/25 02:44:58;;;;;;;3.13;1.63;;;8.70;99.90;;;;;;4995739;28;20219;-67
2023/03/25 02:47:30;;;;;;;3.23;2.03;;;8.60;99.90;;;;;;4995308;28;20270;-68
2023/03/25 02:50:06;;;;;;;1.77;1.53;;;8.60;99.90;;;;;;4994488;28;20311;-68
2023/03/25 02:52:59;;;;;;;2.07;1.50;;;8.60;99.90;;;;;;4994828;28;20204;-68
2023/03/25 02:55:29;;;;;;;1.80;1.57;;;8.60;99.90;;;;;;4994068;28;20205;-70
2023/03/25 02:57:56;;;;;;;2.10;1.50;;;8.60;99.90;;;;;;4995746;28;20287;-70
2023/03/25 03:00:25;;;;;;;3.47;1.57;;;8.60;99.90;;;;;;4992564;28;20197;-70
2023/03/25 03:03:02;;;;;;;2.03;1.50;;;8.60;99.90;;;;;;4995641;28;20201;-69
2023/03/25 03:05:31;;;;;;;1.50;1.27;;;8.70;99.90;;;;;;4995510;28;20205;-69
2023/03/25 03:08:25;;;;;;;2.63;1.63;;;8.70;99.90;;;;;;4993400;28;20327;-69
2023/03/25 03:11:11;;;;;;;2.13;1.87;;;8.80;99.90;;;;;;4994907;28;20207;-69
2023/03/25 03:14:10;;;;;;;2.30;1.20;;;8.80;99.90;;;;;;4982631;28;20229;-71
2023/03/25 03:16:49;;;;;;;1.80;1.27;;;8.90;99.90;;;;;;4998209;28;20205;-69
2023/03/25 03:19:45;;;;;;;2.63;1.40;;;8.90;99.90;;;;;;4998204;28;20711;-70
2023/03/25 03:22:40;;;;;;;2.43;1.50;;;8.90;99.90;;;;;;4998128;28;20200;-68
2023/03/25 03:25:19;;;;;;;2.53;1.77;;;8.90;99.90;;;;;;4992475;28;20842;-69
2023/03/25 03:28:18;;;;;;;1.23;1.23;;;8.80;99.90;;;;;;4988526;28;20208;-70
2023/03/25 03:30:50;;;;;;;3.37;1.53;;;8.70;99.90;;;;;;4991228;28;20358;-68
2023/03/25 03:33:25;;;;;;;5.17;1.93;;;8.70;99.90;;;;;;4984486;28;20555;-69
2023/03/25 03:36:01;;;;;;;3.97;1.50;;;8.70;99.90;;;;;;4996979;28;20246;-69
2023/03/25 03:38:35;;;;;;;4.67;1.67;;;8.70;99.90;;;;;;4998304;28;20602;-69
2023/03/25 03:41:08;;;;;;;4.87;1.50;;;8.60;99.90;;;;;;4998978;28;20204;-69
2023/03/25 03:43:40;;;;;;;2.87;1.50;;;8.70;99.90;;;;;;4999311;28;20929;-69
2023/03/25 03:46:21;;;;;;;4.50;1.70;;;8.70;99.90;;;;;;4999066;28;20234;-69
2023/03/25 03:48:53;;;;;;;2.33;1.30;;;8.60;99.90;;;;;;4998605;28;20685;-68
2023/03/25 03:51:34;;;;;;;4.50;1.87;;;8.50;99.90;;;;;;4998758;28;20615;-68
2023/03/25 03:54:09;;;;;;;2.83;1.43;;;8.50;99.90;;;;;;4998460;28;20236;-68
2023/03/25 03:56:40;;;;;;;4.23;1.80;;;8.50;99.90;;;;;;4999106;28;20217;-68
2023/03/25 03:59:18;;;;;;;1.70;1.60;;;8.40;99.90;;;;;;4995441;28;20606;-68
2023/03/25 04:01:47;;;;;;;3.57;1.47;;;8.40;99.90;;;;;;4997647;28;20747;-68
2023/03/25 04:04:22;;;;;;;2.00;1.33;;;8.40;99.90;;;;;;4998288;28;20208;-68
2023/03/25 04:06:59;;;;;;;2.97;1.70;;;8.40;99.90;;;;;;4998649;28;20223;-68
2023/03/25 04:10:01;;;;;;;2.83;2.13;;;8.30;99.90;;;;;;4998544;28;20547;-68
2023/03/25 04:12:32;;;;;;;3.57;1.90;;;8.30;99.90;;;;;;4979392;28;20219;-68
2023/03/25 04:15:03;;;;;;;5.27;2.50;;;8.20;99.90;;;;;;4985520;28;20213;-68
2023/03/25 04:17:28;;;;;;;5.17;2.23;;;8.30;99.90;;;;;;4989001;28;20207;-68
2023/03/25 04:19:55;;;;;;;4.23;2.47;;;8.30;99.90;;;;;;4987405;28;20235;-73
2023/03/25 04:22:20;;;;;;;5.13;2.57;;;8.30;99.90;;;;;;4987209;28;20200;-68
2023/03/25 04:24:48;;;;;;;4.13;1.63;;;8.30;99.90;;;;;;4988944;28;20208;-68
2023/03/25 04:27:15;;;;;;;2.93;1.70;;;8.30;99.90;;;;;;4990894;28;20224;-67
2023/03/25 04:29:42;;;;;;;2.07;1.67;;;8.40;99.90;;;;;;4989438;28;20212;-67
2023/03/25 04:32:09;;;;;;;4.90;1.57;;;8.40;99.90;;;;;;4986181;28;20193;-68
2023/03/25 04:34:35;;;;;;;2.40;1.40;;;8.40;99.90;;;;;;4989174;28;20229;-69
2023/03/25 04:37:00;;;;;;;2.13;1.00;;;8.40;99.90;;;;;;4989072;28;20267;-70
2023/03/25 04:39:28;;;;;;;2.63;1.50;;;8.30;99.90;;;;;;4988685;28;20217;-69
2023/03/25 04:41:55;;;;;;;3.13;1.50;;;8.30;99.90;;;;;;4989040;28;20208;-69
2023/03/25 04:44:22;;;;;;;5.17;1.30;;;8.30;99.90;;;;;;4986954;28;20208;-69
2023/03/25 04:46:48;;;;;;;4.43;1.53;;;8.30;99.90;;;;;;4988158;28;20212;-69
2023/03/25 04:49:21;;;;;;;1.43;1.30;;;8.30;99.90;;;;;;4987978;28;20267;-69
2023/03/25 04:51:50;;;;;;;5.40;1.57;;;8.20;99.90;;;;;;4987899;28;20197;-69
2023/03/25 04:54:16;;;;;;;2.23;1.33;;;8.20;99.90;;;;;;4984712;28;20233;-68
2023/03/25 04:56:42;;;;;;;4.47;1.60;;;8.30;99.90;;;;;;4988130;28;20197;-69
2023/03/25 04:59:09;;;;;;;1.30;1.20;;;8.30;99.90;;;;;;4988765;28;20567;-70
2023/03/25 05:01:40;;;;;;;3.03;1.40;;;8.30;99.90;;;;;;4988124;28;20210;-67
2023/03/25 05:04:06;;;;;;;3.70;1.50;;;8.30;99.90;;;;;;4985893;28;20227;-69
2023/03/25 05:06:41;;;;;;;2.47;1.70;;;8.30;99.90;;;;;;4987421;28;20258;-68
2023/03/25 05:09:16;;;;;;;2.70;1.20;;;8.30;99.90;;;;;;4987262;28;20751;-67
2023/03/25 05:11:42;;;;;;;2.77;1.43;;;8.40;99.90;;;;;;4985698;28;20219;-68
2023/03/25 05:14:08;;;;;;;2.73;1.50;;;8.40;99.90;;;;;;4987973;28;20197;-68
2023/03/25 05:16:34;;;;;;;2.77;1.57;;;8.40;99.90;;;;;;4988006;28;20201;-68
2023/03/25 05:19:02;;;;;;;1.47;1.00;;;8.40;99.90;;;;;;4992563;28;20213;-69
2023/03/25 05:21:30;;;;;;;1.87;1.47;;;8.40;99.90;;;;;;4996605;28;20198;-68
2023/03/25 05:23:57;;;;;;;3.47;1.10;;;8.40;99.90;;;;;;4994878;28;20210;-69
2023/03/25 05:26:23;;;;;;;1.30;1.17;;;8.40;99.90;;;;;;4997074;28;20274;-68
2023/03/25 05:28:50;;;;;;;1.37;1.27;;;8.50;99.90;;;;;;4996779;28;20204;-68
2023/03/25 05:31:16;;;;;;;2.40;1.00;;;8.50;99.90;;;;;;4996704;28;20287;-69
2023/03/25 05:33:42;;;;;;;3.43;0.97;;;8.60;99.90;;;;;;4993976;28;20261;-69
2023/03/25 05:36:12;;;;;;;2.83;1.10;;;8.60;99.90;;;;;;4996640;28;20204;-69
2023/03/25 05:38:43;;;;;;;3.37;1.43;;;8.70;99.90;;;;;;4996524;28;20212;-69
2023/03/25 05:41:15;;;;;;;2.47;0.80;;;8.80;99.90;;;;;;4996823;28;20283;-68
2023/03/25 05:43:49;;;;;;;1.63;1.20;;;8.80;99.90;;;;;;4981852;28;20699;-69
2023/03/25 05:46:16;;;;;;;2.33;1.30;;;8.90;99.90;;;;;;4978027;28;20574;-69
2023/03/25 05:48:42;;;;;;;4.17;1.40;;;8.90;99.90;;;;;;4977474;28;20254;-69
2023/03/25 05:51:14;;;;;;;3.00;1.93;;;9.00;99.90;;;;;;4975805;28;20568;-69
2023/03/25 05:53:42;;;;;;;1.97;1.00;;;9.10;99.90;;;;;;4977190;28;20193;-69
2023/03/25 05:56:08;;;;;;;4.67;1.53;;;9.10;99.90;;;;;;4977520;28;20773;-69
2023/03/25 05:58:35;;;;;;;4.07;1.30;;;9.10;99.90;;;;;;4977572;28;20305;-69
2023/03/25 06:01:01;;;;;;;4.43;0.80;;;9.10;99.90;;;;;;4989023;28;20206;-70
2023/03/25 06:03:27;;;;;;;4.80;1.47;;;9.20;99.90;;;;;;4996462;28;20208;-70
2023/03/25 06:05:52;;;;;;;2.77;0.70;;;9.20;99.90;;;;;;4996583;28;20243;-70
2023/03/25 06:08:24;;;;;;;4.67;1.10;;;9.30;99.90;;;;;;4996527;28;20578;-69
2023/03/25 06:10:57;;;;;;;1.93;0.70;;;9.40;99.90;;;;;;4996138;28;20608;-68
2023/03/25 06:13:23;;;;;;;1.20;0.80;;;9.40;99.90;;;;;;4996720;28;20199;-69
2023/03/25 06:15:54;;;;;;;0.83;0.67;;;9.40;99.90;;;;;;4996433;28;20236;-69
2023/03/25 06:18:23;;;;;;;2.20;0.80;;;9.40;99.90;;;;;;4983320;28;20264;-69
2023/03/25 06:20:50;;;;;;;0.70;0.70;;;9.40;99.90;;;;;;4975704;28;20209;-70
2023/03/25 06:23:16;;;;;;;3.50;1.00;;;9.30;99.90;;;;;;4976800;28;20204;-68
2023/03/25 06:25:42;;;;;;;2.20;1.10;;;9.30;99.90;;;;;;4976679;28;20621;-74
2023/03/25 06:28:07;;;;;;;1.87;1.00;;;9.30;99.90;;;;;;4994562;28;20970;-69
2023/03/25 06:30:32;;;;;;;1.83;0.93;;;9.20;99.90;;;;;;4994989;28;20267;-69
2023/03/25 06:33:01;;;;;;;0.80;0.80;;;9.30;99.90;;;;;;4993679;28;20528;-68
2023/03/25 06:35:27;;;;;;;2.93;1.10;;;9.40;99.90;;;;;;4995484;28;21248;-70
2023/03/25 06:37:52;;;;;;;2.30;0.80;;;9.40;99.90;;;;;;4995733;28;20197;-70
2023/03/25 06:40:18;;;;;;;2.30;0.70;;;9.50;99.90;;;;;;4993292;28;20197;-70
2023/03/25 06:42:44;;;;;;;2.43;0.60;;;9.50;99.90;;;;;;4995628;28;20254;-69
2023/03/25 06:45:11;;;;;;;2.43;1.00;;;9.60;99.90;;;;;;4995625;28;20202;-69
2023/03/25 06:47:37;;;;;;;0.97;0.90;;;9.60;99.90;;;;;;4995818;28;20221;-69
2023/03/25 06:50:03;;;;;;;5.50;0.90;;;9.60;99.90;;;;;;4994811;28;20200;-68
2023/03/25 06:52:28;;;;;;;1.30;1.20;;;9.50;99.90;;;;;;4994640;28;20294;-69
2023/03/25 06:54:54;;;;;;;2.33;1.10;;;9.50;99.90;;;;;;4992956;28;20219;-69
2023/03/25 06:57:19;;;;;;;0.70;0.70;;;9.40;99.90;;;;;;4995578;28;20196;-69
2023/03/25 06:59:46;;;;;;;2.13;0.83;;;9.40;99.90;;;;;;4995929;28;20673;-68
2023/03/25 07:02:12;;;;;;;2.03;1.03;;;9.40;99.90;;;;;;4995434;28;20854;-69
2023/03/25 07:04:39;;;;;;;3.97;1.30;;;9.50;99.90;;;;;;4994762;28;20199;-69
2023/03/25 07:07:04;;;;;;;2.00;0.80;;;9.60;99.90;;;;;;4993900;28;20618;-69
2023/03/25 07:09:30;;;;;;;1.03;0.90;;;9.70;99.90;;;;;;4995903;28;20197;-69
2023/03/25 07:11:56;;;;;;;2.13;1.00;;;9.70;99.90;;;;;;4996066;28;20548;-69
2023/03/25 07:14:21;;;;;;;3.83;1.03;;;9.80;99.90;;;;;;4995564;28;20669;-69
2023/03/25 07:16:46;;;;;;;1.80;0.70;;;9.90;99.90;;;;;;4995923;28;20283;-68
2023/03/25 07:19:12;;;;;;;1.97;0.97;;;9.90;99.90;;;;;;4995682;28;20197;-68
2023/03/25 07:21:37;;;;;;;3.93;0.90;;;10.00;99.90;;;;;;4993358;28;20204;-67
2023/03/25 07:24:03;;;;;;;2.83;0.90;;;10.10;99.90;;;;;;4995415;28;20206;-68
2023/03/25 07:26:29;;;;;;;2.10;1.03;;;10.20;99.90;;;;;;4995552;28;20645;-69
2023/03/25 07:28:54;;;;;;;2.10;0.90;;;10.30;99.90;;;;;;4995582;28;20192;-68
2023/03/25 07:31:20;;;;;;;4.93;1.30;;;10.40;99.90;;;;;;4993200;28;20617;-67
2023/03/25 07:33:46;;;;;;;2.20;1.00;;;10.60;99.90;;;;;;4976729;28;20321;-68
2023/03/25 07:36:12;;;;;;;3.13;0.90;;;10.60;99.90;;;;;;4977997;28;20204;-70
2023/03/25 07:38:38;;;;;;;3.73;1.50;;;10.80;99.90;;;;;;4975672;28;20230;-68
2023/03/25 07:41:08;;;;;;;1.47;1.10;;;10.90;99.90;;;;;;4976872;28;20715;-69
2023/03/25 07:43:34;;;;;;;1.63;1.37;;;11.00;99.90;;;;;;4975151;28;20270;-69
2023/03/25 07:45:59;;;;;;;3.43;1.20;;;11.00;99.90;;;;;;4976557;28;20685;-69
2023/03/25 07:48:25;;;;;;;3.40;1.10;;;10.90;99.90;;;;;;4974806;28;20199;-70
2023/03/25 07:50:51;;;;;;;1.07;0.80;;;11.00;99.90;;;;;;4975944;28;20563;-69
2023/03/25 07:53:17;;;;;;;1.57;1.17;;;11.00;99.90;;;;;;4975584;28;20946;-69
2023/03/25 07:55:44;;;;;;;2.03;0.80;;;11.10;99.90;;;;;;4974288;28;20208;-69
2023/03/25 07:58:10;;;;;;;2.17;0.90;;;11.20;99.90;;;;;;4980528;28;20229;-70
2023/03/25 08:00:36;;;;;;;2.63;1.20;;;11.40;99.90;;;;;;4980243;28;20196;-69
2023/03/25 08:03:02;;;;;;;1.60;0.80;;;11.50;99.90;;;;;;4979538;28;20570;-71
2023/03/25 08:05:28;;;;;;;0.97;0.70;;;11.50;99.90;;;;;;4984927;28;20660;-70
2023/03/25 08:07:54;;;;;;;2.70;1.00;;;11.60;99.90;;;;;;4986961;28;20208;-70
2023/03/25 08:10:20;;;;;;;4.73;1.40;;;11.60;99.90;;;;;;4988369;28;20214;-70
2023/03/25 08:12:45;;;;;;;4.07;1.10;;;11.60;99.90;;;;;;4988053;28;20885;-73
2023/03/25 08:15:12;;;;;;;2.83;0.60;;;11.70;99.90;;;;;;4988947;28;20301;-70
2023/03/25 08:17:38;;;;;;;2.57;0.90;;;11.80;99.90;;;;;;4988228;28;20217;-70
2023/03/25 08:20:05;;;;;;;2.10;0.60;;;11.80;99.90;;;;;;4986899;28;20210;-71
2023/03/25 08:22:32;;;;;;;3.50;1.03;;;11.90;99.90;;;;;;4988830;28;20206;-72
2023/03/25 08:24:58;;;;;;;1.50;0.53;;;12.00;99.90;;;;;;4988685;28;20219;-70
2023/03/25 08:27:23;;;;;;;14.63;1.57;;;12.00;99.90;;;;;;4988318;28;20231;-72
2023/03/25 08:29:53;;;;;;;2.47;1.10;;;12.10;99.90;;;;;;4988531;28;20260;-71
2023/03/25 08:32:23;;;;;;;3.60;1.17;;;12.10;99.90;;;;;;4986217;28;20205;-70
2023/03/25 08:34:49;;;;;;;1.20;0.63;;;11.90;99.90;;;;;;4987944;28;20232;-70
2023/03/25 08:37:14;;;;;;;0.80;0.70;;;11.90;99.90;;;;;;4988041;28;20665;-71
2023/03/25 08:39:43;;;;;;;0.90;0.60;;;12.10;99.90;;;;;;4970044;28;20634;-69
2023/03/25 08:42:11;;;;;;;1.23;0.60;;;12.30;99.90;;;;;;4986159;28;20215;-69
2023/03/25 08:44:36;;;;;;;0.70;0.70;;;12.50;99.90;;;;;;4988132;28;20208;-70
2023/03/25 08:47:02;;;;;;;2.33;1.57;;;12.50;99.90;;;;;;4989471;28;20222;-69
2023/03/25 08:49:28;;;;;;;3.50;0.83;;;12.50;99.90;;;;;;4990498;28;20207;-69
2023/03/25 08:51:56;;;;;;;2.30;0.90;;;12.80;99.90;;;;;;4988184;28;20879;-70
2023/03/25 08:54:22;;;;;;;1.93;0.60;;;12.70;99.90;;;;;;4985736;28;20202;-70
2023/03/25 08:56:48;;;;;;;0.90;0.70;;;12.50;99.90;;;;;;4987304;28;20304;-71
2023/03/25 08:59:13;;;;;;;2.53;0.80;;;12.50;99.90;;;;;;4987309;28;20202;-71
2023/03/25 09:01:39;;;;;;;4.77;1.20;;;12.50;99.90;;;;;;4986962;28;20630;-70
2023/03/25 09:04:05;;;;;;;0.50;0.40;;;12.50;99.90;;;;;;4987606;28;20209;-70
2023/03/25 09:06:31;;;;;;;0.83;0.70;;;12.60;99.90;;;;;;4986648;28;20215;-70
2023/03/25 09:08:57;;;;;;;0.90;0.90;;;12.80;99.90;;;;;;4988138;28;20209;-70
2023/03/25 09:11:22;;;;;;;1.50;0.70;;;12.80;99.90;;;;;;4986090;28;20286;-70
2023/03/25 09:13:48;;;;;;;1.77;0.53;;;12.80;99.90;;;;;;4988228;28;20327;-69
2023/03/25 09:16:13;;;;;;;1.23;1.00;;;12.90;99.90;;;;;;4986862;28;20275;-69
2023/03/25 09:18:39;;;;;;;1.77;0.90;;;12.80;99.90;;;;;;4984825;28;20303;-69
2023/03/25 09:21:05;;;;;;;0.90;0.70;;;12.70;99.90;;;;;;4987998;28;20777;-79
2023/03/25 09:23:30;;;;;;;1.60;0.77;;;12.70;99.90;;;;;;4989894;28;20210;-77
2023/03/25 09:26:00;;;;;;;1.13;0.57;;;12.50;99.90;;;;;;4990028;28;20725;-76
2023/03/25 09:28:26;;;;;;;2.53;0.70;;;12.00;99.90;;;;;;4989324;28;20281;-76
2023/03/25 09:30:53;;;;;;;2.63;0.80;;;11.60;99.90;;;;;;4990874;28;20918;-78
2023/03/25 09:33:19;;;;;;;2.13;1.17;;;10.90;99.90;;;;;;4991641;28;20218;-77
2023/03/25 09:35:45;;;;;;;0.90;0.63;;;10.40;99.90;;;;;;4988472;28;20216;-76
2023/03/25 09:38:11;;;;;;;1.27;0.53;;;10.40;99.90;;;;;;4997303;28;20256;-78
2023/03/25 09:40:40;;;;;;;2.43;1.07;;;10.70;99.90;;;;;;4991353;28;20198;-75
2023/03/25 09:43:30;;;;;;;1.40;0.70;;;10.90;99.90;;;;;;4992391;28;20222;-77
2023/03/25 09:45:58;;;;;;;2.67;1.20;;;11.20;99.90;;;;;;4986920;28;20229;-75
2023/03/25 09:48:30;;;;;;;2.13;0.90;;;11.70;99.90;;;;;;4998360;28;20247;-76
2023/03/25 09:51:16;;;;;;;1.30;1.20;;;12.30;99.90;;;;;;4989952;28;20202;-75
2023/03/25 09:53:50;;;;;;;2.10;0.87;;;12.90;99.90;;;;;;4997029;28;20189;-74
2023/03/25 09:56:20;;;;;;;3.07;0.70;;;13.10;99.90;;;;;;4990699;28;20197;-70
2023/03/25 09:59:19;;;;;;;0.60;0.60;;;13.00;99.90;;;;;;4987812;28;20206;-73
2023/03/25 10:02:00;;;;;;;3.57;1.13;;;13.00;99.90;;;;;;4947114;28;20213;-72
2023/03/25 10:04:47;;;;;;;3.13;0.97;;;12.90;99.90;;;;;;4987026;28;20231;-73
2023/03/25 10:07:31;;;;;;;2.20;0.70;;;12.80;99.90;;;;;;4985877;28;20219;-73
2023/03/25 10:10:20;;;;;;;1.57;1.10;;;12.70;99.90;;;;;;4986634;28;20221;-73
2023/03/25 10:12:57;;;;;;;1.40;0.80;;;12.60;99.90;;;;;;4986531;28;20663;-74
2023/03/25 10:15:39;;;;;;;1.93;1.10;;;12.50;99.90;;;;;;4986958;28;20197;-73
2023/03/25 10:18:26;;;;;;;0.70;0.70;;;12.60;99.90;;;;;;4986866;28;20576;-73
2023/03/25 10:21:17;;;;;;;1.60;0.77;;;12.60;99.90;;;;;;4986081;28;20243;-72
2023/03/25 10:24:10;;;;;;;2.63;0.50;;;13.00;99.90;;;;;;4984114;28;20691;-74
2023/03/25 10:26:54;;;;;;;2.60;1.17;;;13.40;99.90;;;;;;4979439;28;20310;-71
2023/03/25 10:29:26;;;;;;;2.80;0.93;;;13.60;99.90;;;;;;4982851;28;20204;-73
2023/03/25 10:31:58;;;;;;;3.53;1.47;;;13.40;99.90;;;;;;4986756;28;20207;-73
2023/03/25 10:34:36;;;;;;;1.00;0.67;;;13.50;99.60;;;;;;4986257;28;20259;-72
2023/03/25 10:37:06;;;;;;;0.63;0.63;;;13.60;99.00;;;;;;4983583;28;20614;-73
2023/03/25 10:39:32;;;;;;;0.80;0.80;;;13.40;98.90;;;;;;4986501;28;20674;-76
2023/03/25 10:42:02;;;;;;;1.67;0.70;;;13.50;99.00;;;;;;4988195;28;20240;-74
2023/03/25 10:44:29;;;;;;;0.70;0.63;;;13.70;98.60;;;;;;4986232;28;20205;-73
2023/03/25 10:47:05;;;;;;;1.03;0.73;;;13.70;98.70;;;;;;4984896;28;20295;-74
2023/03/25 10:49:32;;;;;;;3.10;0.90;;;13.70;98.40;;;;;;4987342;28;20231;-73
2023/03/25 10:51:58;;;;;;;1.13;0.90;;;13.70;98.60;;;;;;4986099;28;20180;-74
2023/03/25 10:54:30;;;;;;;2.53;1.10;;;13.80;98.30;;;;;;4984056;28;20208;-73
2023/03/25 10:57:05;;;;;;;2.93;0.83;;;13.70;98.50;;;;;;4984392;28;20881;-76
2023/03/25 10:59:44;;;;;;;2.53;0.90;;;13.70;98.70;;;;;;4987330;28;20249;-63
2023/03/25 11:02:24;;;;;;;1.87;1.13;;;13.70;98.30;;;;;;4986921;28;20573;-63
2023/03/25 11:04:54;;;;;;;1.10;0.70;;;13.80;98.40;;;;;;4984433;28;20212;-64
2023/03/25 11:07:32;;;;;;;2.87;1.13;;;13.90;98.00;;;;;;4986971;28;20328;-65
2023/03/25 11:10:28;;;;;;;0.70;0.70;;;13.80;98.60;;;;;;4987083;28;20196;-64
2023/03/25 11:12:57;;;;;;;2.47;0.73;;;13.60;98.50;;;;;;4979390;28;20324;-73
2023/03/25 11:15:24;;;;;;;0.67;0.67;;;14.20;98.00;;;;;;4977157;28;20260;-74
2023/03/25 11:18:06;;;;;;;0.97;0.63;;;14.50;96.50;;;;;;4988029;28;20204;-71
2023/03/25 11:20:38;;;;;;;0.63;0.63;;;14.10;96.70;;;;;;4993960;28;20204;-71
2023/03/25 11:23:25;;;;;;;1.20;0.70;;;13.70;97.40;;;;;;4996101;28;20407;-71
2023/03/25 11:25:53;;;;;;;3.50;0.70;;;13.40;98.20;;;;;;4993187;28;20239;-72
2023/03/25 11:28:39;;;;;;;0.80;0.77;;;13.10;99.30;;;;;;4996239;28;20692;-71
2023/03/25 11:31:12;;;;;;;0.67;0.67;;;12.30;99.90;;;;;;4996357;28;20221;-72
2023/03/25 11:33:40;;;;;;;0.73;0.50;;;11.00;99.90;;;;;;4998503;28;20226;-72
2023/03/25 11:36:16;;;;;;;0.57;0.57;;;10.40;99.90;;;;;;5000167;28;20196;-72
2023/03/25 11:38:46;;;;;;;0.77;0.77;;;10.20;99.90;;;;;;4999963;28;20212;-72
2023/03/25 11:41:13;;;;;;;2.93;0.80;;;10.30;99.90;;;;;;4999860;28;20363;-72
2023/03/25 11:43:39;;;;;;;1.30;1.10;;;10.50;99.90;;;;;;4999658;28;20212;-73
2023/03/25 11:46:16;;;;;;;2.80;0.90;;;10.50;99.90;;;;;;4997526;28;20221;-73
2023/03/25 11:48:43;;;;;;;1.27;0.60;;;10.60;99.90;;;;;;4999580;28;20541;-73
2023/03/25 11:51:13;;;;;;;2.87;1.30;;;10.80;99.90;;;;;;4999371;28;20229;-73
2023/03/25 11:53:55;;;;;;;3.67;0.90;;;11.30;99.90;;;;;;4996773;28;20193;-72
2023/03/25 11:56:26;;;;;;;2.93;0.80;;;11.80;99.90;;;;;;4998685;28;20209;-73
2023/03/25 11:58:57;;;;;;;3.00;0.93;;;12.30;99.90;;;;;;4992675;28;20682;-72
2023/03/25 12:01:44;;;;;;;1.07;0.63;;;12.90;99.90;;;;;;4989702;28;20685;-72
2023/03/25 12:04:19;;;;;;;1.23;0.60;;;13.70;99.90;;;;;;4988744;28;20685;-73
2023/03/25 12:07:13;;;;;;;1.77;0.90;;;14.40;99.90;;;;;;4989115;28;20243;-72
2023/03/25 12:09:54;;;;;;;1.63;0.80;;;14.90;99.10;;;;;;4984156;28;20282;-73
2023/03/25 12:12:55;;;;;;;1.40;0.90;;;15.30;98.30;;;;;;4988823;28;20217;-72
2023/03/25 12:15:40;;;;;;;1.77;0.63;;;15.10;96.90;;;;;;4950458;28;20208;-71
2023/03/25 12:18:46;;;;;;;1.53;0.67;;;14.40;97.00;;;;;;4989086;28;20211;-71
2023/03/25 12:21:41;;;;;;;1.27;0.57;;;14.20;96.90;;;;;;4950900;28;20229;-71
2023/03/25 12:24:35;;;;;;;1.77;0.90;;;13.90;96.90;;;;;;4989234;28;20215;-72
2023/03/25 12:27:28;;;;;;;1.47;0.80;;;13.70;97.40;;;;;;4988882;28;20948;-71
2023/03/25 12:30:24;;;;;;;0.67;0.30;;;14.00;97.30;;;;;;4989350;28;20291;-71
2023/03/25 12:33:16;;;;;;;1.77;0.70;;;14.30;96.70;;;;;;4988314;28;20661;-70
2023/03/25 12:36:11;;;;;;;1.70;0.50;;;14.50;96.80;;;;;;4988850;28;20804;-71
2023/03/25 12:39:02;;;;;;;2.97;0.70;;;14.40;95.90;;;;;;4988148;28;20209;-73
2023/03/25 12:41:34;;;;;;;0.97;0.70;;;14.40;96.00;;;;;;4988060;28;20287;-72
2023/03/25 12:44:02;;;;;;;1.07;0.40;;;13.80;95.70;;;;;;4987182;28;20201;-72
2023/03/25 12:46:52;;;;;;;0.30;0.30;;;13.60;96.60;;;;;;4985880;28;20219;-71
2023/03/25 12:49:45;;;;;;;0.60;0.60;;;13.90;96.60;;;;;;4988334;28;20196;-71
2023/03/25 12:52:17;;;;;;;0.77;0.50;;;13.80;96.40;;;;;;4986711;28;20196;-70
2023/03/25 12:55:01;;;;;;;0.70;0.60;;;13.60;96.00;;;;;;4987391;28;20234;-72
2023/03/25 12:57:46;;;;;;;2.73;2.17;;;13.60;96.20;;;;;;4985388;28;20563;-71
2023/03/25 13:00:25;;;;;;;1.03;0.70;;;13.40;96.70;;;;;;4984842;28;20296;-74
2023/03/25 13:03:13;;;;;;;4.27;2.07;;;13.20;97.10;;;;;;4989063;28;20234;-66
2023/03/25 13:06:03;;;;;;;10.17;7.17;;;13.30;98.20;;;;;;4984476;28;20230;-67
2023/03/25 13:08:35;;;;;;;2.77;1.37;;;13.30;98.50;;;;;;4987780;28;20440;-67
2023/03/25 13:11:25;;;;;;;13.33;8.77;;;13.20;98.50;;;;;;4985934;28;20193;-68
2023/03/25 13:13:53;;;;;;;1.10;1.10;;;12.30;99.90;;;;;;4987208;28;20591;-68
2023/03/25 13:16:23;;;;;;;2.60;2.07;;;10.60;99.90;;;;;;4986380;28;20703;-68
2023/03/25 13:18:51;;;;;;;2.43;1.73;;;10.10;99.90;;;;;;4986459;28;20810;-69